PWSweather.com
Personal Weather Stations
Station Observations

BunburyAU

Lat: -33.378333, Lon: 115.651667

Elevation: 95

Station Type: Fine Offset WH2081

http://www.sedgleymanor.com/wx/index.htm

Latest ConditionsUpdated 10:30:01 AM GMT+08:08 Monday, Nov 24, 2014
Currently Today's Max Today's Min Today's Average
Temperature 73.9°F23.3°C 73.9°F23.3°C 45.0°F7.2°C 54.9°F12.7°C
Dew Point 41.4°F5.2°C 45.8°F7.7°C 39.7°F4.3°C 42.7°F5.9°C
Winds 3.2 mph ESE5.1 kmh ESE 8.6 mph NE13.8 kmh NE - 2.7 mph 4.3 kmh
Wind Gusts 9.8 mph15.8 kmh 15.2 mph24.5 kmh - -
Humidity 31% 89% 31% 67%
Pressure 30.16 in1021.3 mb 30.21 in1023.0 mb 30.15 in1021.0 mb -
Hour Temp Dew Point Humidity Winds Wind Gusts Pressure Precip Precip Rate Daily Precip Total
10:30 AM 73.9°F23.3°C 41.4°F5.2°C 31% 3.2 mph ESE5.1 kmh ESE 9.8 mph15.8 kmh 30.16 in1021.3 mb 0.00 in0.0 mm 0.00 in/hr0.0 mm/hr 0.00 in0.0 mm
10:15 AM 72.7°F22.6°C 40.3°F4.6°C 31% 4.7 mph E7.6 kmh E 13.0 mph20.9 kmh 30.18 in1022.0 mb 0.00 in0.0 mm 0.00 in/hr0.0 mm/hr 0.00 in0.0 mm
10:00 AM 70.2°F21.2°C 39.7°F4.3°C 33% 5.0 mph E8.0 kmh E 13.0 mph20.9 kmh 30.18 in1022.0 mb 0.00 in0.0 mm 0.00 in/hr0.0 mm/hr 0.00 in0.0 mm
09:45 AM 71.1°F21.7°C 41.3°F5.2°C 34% 4.3 mph E6.9 kmh E 10.7 mph17.2 kmh 30.18 in1022.0 mb 0.00 in0.0 mm 0.00 in/hr0.0 mm/hr 0.00 in0.0 mm
09:30 AM 69.4°F20.8°C 42.8°F6.0°C 38% 5.0 mph E8.0 kmh E 11.4 mph18.3 kmh 30.19 in1022.4 mb 0.00 in0.0 mm 0.00 in/hr0.0 mm/hr 0.00 in0.0 mm
09:15 AM 68.0°F20.0°C 42.8°F6.0°C 40% 6.4 mph E10.3 kmh E 14.5 mph23.3 kmh 30.20 in1022.7 mb 0.00 in0.0 mm 0.00 in/hr0.0 mm/hr 0.00 in0.0 mm
09:00 AM 67.3°F19.6°C 42.8°F6.0°C 41% 5.7 mph ESE9.2 kmh ESE 13.6 mph21.9 kmh 30.20 in1022.7 mb 0.00 in0.0 mm 0.00 in/hr0.0 mm/hr 0.00 in0.0 mm
08:45 AM 66.4°F19.1°C 42.6°F5.9°C 42% 8.6 mph NE13.8 kmh NE 15.2 mph24.5 kmh 30.20 in1022.7 mb 0.00 in0.0 mm 0.00 in/hr0.0 mm/hr 0.00 in0.0 mm
08:30 AM 68.2°F20.1°C 43.6°F6.4°C 41% 5.5 mph ESE8.9 kmh ESE 11.4 mph18.3 kmh 30.21 in1023.0 mb 0.00 in0.0 mm 0.00 in/hr0.0 mm/hr 0.00 in0.0 mm
08:15 AM 64.9°F18.3°C 43.7°F6.5°C 46% 7.1 mph E11.4 kmh E 12.1 mph19.5 kmh 30.20 in1022.7 mb 0.00 in0.0 mm 0.00 in/hr0.0 mm/hr 0.00 in0.0 mm
08:00 AM 65.1°F18.4°C 43.8°F6.6°C 46% 5.3 mph ESE8.5 kmh ESE 10.7 mph17.2 kmh 30.21 in1023.0 mb 0.00 in0.0 mm 0.00 in/hr0.0 mm/hr 0.00 in0.0 mm
07:45 AM 66.0°F18.9°C 45.2°F7.3°C 47% 3.0 mph ESE4.8 kmh ESE 8.3 mph13.4 kmh 30.21 in1023.0 mb 0.00 in0.0 mm 0.00 in/hr0.0 mm/hr 0.00 in0.0 mm
07:30 AM 64.0°F17.8°C 45.0°F7.2°C 50% 3.9 mph SE6.3 kmh SE 9.8 mph15.8 kmh 30.21 in1023.0 mb 0.00 in0.0 mm 0.00 in/hr0.0 mm/hr 0.00 in0.0 mm
07:15 AM 63.1°F17.3°C 44.7°F7.1°C 51% 3.0 mph E4.8 kmh E 8.3 mph13.4 kmh 30.21 in1023.0 mb 0.00 in0.0 mm 0.00 in/hr0.0 mm/hr 0.00 in0.0 mm
07:00 AM 60.6°F15.9°C 45.8°F7.7°C 58% 4.4 mph SE7.1 kmh SE 9.2 mph14.8 kmh 30.20 in1022.7 mb 0.00 in0.0 mm 0.00 in/hr0.0 mm/hr 0.00 in0.0 mm
06:45 AM 59.9°F15.5°C 45.6°F7.6°C 59% 2.7 mph ESE4.3 kmh ESE 8.3 mph13.4 kmh 30.20 in1022.7 mb 0.00 in0.0 mm 0.00 in/hr0.0 mm/hr 0.00 in0.0 mm
06:30 AM 57.7°F14.3°C 45.2°F7.3°C 63% 2.3 mph SE3.7 kmh SE 5.4 mph8.7 kmh 30.20 in1022.7 mb 0.00 in0.0 mm 0.00 in/hr0.0 mm/hr 0.00 in0.0 mm
06:15 AM 54.1°F12.3°C 44.6°F7.0°C 70% 1.8 mph ESE2.9 kmh ESE 4.5 mph7.2 kmh 30.20 in1022.7 mb 0.00 in0.0 mm 0.00 in/hr0.0 mm/hr 0.00 in0.0 mm
06:00 AM 51.8°F11.0°C 44.5°F6.9°C 76% 2.1 mph SE3.4 kmh SE 4.5 mph7.2 kmh 30.20 in1022.7 mb 0.00 in0.0 mm 0.00 in/hr0.0 mm/hr 0.00 in0.0 mm
05:45 AM 49.5°F9.7°C 42.9°F6.1°C 78% 2.1 mph S3.4 kmh S 5.4 mph8.7 kmh 30.20 in1022.7 mb 0.00 in0.0 mm 0.00 in/hr0.0 mm/hr 0.00 in0.0 mm
05:30 AM 48.6°F9.2°C 44.3°F6.8°C 85% 2.0 mph SSW3.2 kmh SSW 4.5 mph7.2 kmh 30.19 in1022.4 mb 0.00 in0.0 mm 0.00 in/hr0.0 mm/hr 0.00 in0.0 mm
05:15 AM 45.7°F7.6°C 42.6°F5.9°C 89% 2.0 mph SSE3.2 kmh SSE 3.8 mph6.1 kmh 30.18 in1022.0 mb 0.00 in0.0 mm 0.00 in/hr0.0 mm/hr 0.00 in0.0 mm
05:00 AM 45.1°F7.3°C 42.1°F5.6°C 89% 1.4 mph S2.3 kmh S 3.1 mph5.0 kmh 30.18 in1022.0 mb 0.00 in0.0 mm 0.00 in/hr0.0 mm/hr 0.00 in0.0 mm
04:45 AM 45.0°F7.2°C 41.9°F5.5°C 89% 1.0 mph S1.6 kmh S 3.1 mph5.0 kmh 30.18 in1022.0 mb 0.00 in0.0 mm 0.00 in/hr0.0 mm/hr 0.00 in0.0 mm
04:30 AM 45.0°F7.2°C 41.6°F5.3°C 88% 1.2 mph S1.9 kmh S 3.1 mph5.0 kmh 30.18 in1022.0 mb 0.00 in0.0 mm 0.00 in/hr0.0 mm/hr 0.00 in0.0 mm
04:15 AM 45.0°F7.2°C 41.0°F5.0°C 86% 0.4 mph SE0.6 kmh SE 2.2 mph3.5 kmh 30.17 in1021.7 mb 0.00 in0.0 mm 0.00 in/hr0.0 mm/hr 0.00 in0.0 mm
04:00 AM 45.7°F7.6°C 41.7°F5.4°C 86% 1.3 mph SE2.1 kmh SE 3.8 mph6.1 kmh 30.17 in1021.7 mb 0.00 in0.0 mm 0.00 in/hr0.0 mm/hr 0.00 in0.0 mm
03:45 AM 46.2°F7.9°C 42.3°F5.7°C 86% 2.5 mph SE4.0 kmh SE 5.4 mph8.7 kmh 30.17 in1021.7 mb 0.00 in0.0 mm 0.00 in/hr0.0 mm/hr 0.00 in0.0 mm
03:30 AM 45.9°F7.7°C 42.2°F5.7°C 87% 1.8 mph SE2.9 kmh SE 3.8 mph6.1 kmh 30.17 in1021.7 mb 0.00 in0.0 mm 0.00 in/hr0.0 mm/hr 0.00 in0.0 mm
03:15 AM 45.7°F7.6°C 41.7°F5.4°C 86% 1.1 mph SSE1.8 kmh SSE 3.1 mph5.0 kmh 30.17 in1021.7 mb 0.00 in0.0 mm 0.00 in/hr0.0 mm/hr 0.00 in0.0 mm
03:00 AM 45.7°F7.6°C 41.4°F5.2°C 85% 0.7 mph ESE1.1 kmh ESE 3.1 mph5.0 kmh 30.17 in1021.7 mb 0.00 in0.0 mm 0.00 in/hr0.0 mm/hr 0.00 in0.0 mm
02:45 AM 46.0°F7.8°C 41.8°F5.4°C 85% 1.2 mph SSE1.9 kmh SSE 3.1 mph5.0 kmh 30.16 in1021.3 mb 0.00 in0.0 mm 0.00 in/hr0.0 mm/hr 0.00 in0.0 mm
02:30 AM 46.4°F8.0°C 41.8°F5.4°C 84% 1.5 mph SE2.4 kmh SE 3.1 mph5.0 kmh 30.16 in1021.3 mb 0.00 in0.0 mm 0.00 in/hr0.0 mm/hr 0.00 in0.0 mm
02:15 AM 46.4°F8.0°C 41.5°F5.3°C 83% 0.4 mph SE0.6 kmh SE 2.2 mph3.5 kmh 30.16 in1021.3 mb 0.00 in0.0 mm 0.00 in/hr0.0 mm/hr 0.00 in0.0 mm
02:00 AM 46.8°F8.2°C 41.9°F5.5°C 83% 0.9 mph S1.4 kmh S 3.1 mph5.0 kmh 30.16 in1021.3 mb 0.00 in0.0 mm 0.00 in/hr0.0 mm/hr 0.00 in0.0 mm
01:45 AM 47.3°F8.5°C 42.1°F5.6°C 82% 0.9 mph S1.4 kmh S 3.1 mph5.0 kmh 30.15 in1021.0 mb 0.00 in0.0 mm 0.00 in/hr0.0 mm/hr 0.00 in0.0 mm
01:30 AM 47.8°F8.8°C 42.6°F5.9°C 82% 1.4 mph S2.3 kmh S 3.8 mph6.1 kmh 30.15 in1021.0 mb 0.00 in0.0 mm 0.00 in/hr0.0 mm/hr 0.00 in0.0 mm
01:15 AM 48.2°F9.0°C 42.0°F5.6°C 79% 1.6 mph S2.6 kmh S 3.8 mph6.1 kmh 30.15 in1021.0 mb 0.00 in0.0 mm 0.00 in/hr0.0 mm/hr 0.00 in0.0 mm
01:00 AM 48.4°F9.1°C 41.8°F5.4°C 78% 1.4 mph S2.3 kmh S 3.1 mph5.0 kmh 30.15 in1021.0 mb 0.00 in0.0 mm 0.00 in/hr0.0 mm/hr 0.00 in0.0 mm
12:45 AM 48.7°F9.3°C 41.9°F5.5°C 77% 1.4 mph SSE2.3 kmh SSE 3.8 mph6.1 kmh 30.15 in1021.0 mb 0.00 in0.0 mm 0.00 in/hr0.0 mm/hr 0.00 in0.0 mm
12:30 AM 48.9°F9.4°C 41.7°F5.4°C 76% 1.3 mph S2.1 kmh S 4.5 mph7.2 kmh 30.15 in1021.0 mb 0.00 in0.0 mm 0.00 in/hr0.0 mm/hr 0.00 in0.0 mm
12:15 AM 49.3°F9.6°C 42.0°F5.6°C 76% 1.0 mph S1.6 kmh S 3.1 mph5.0 kmh 30.16 in1021.3 mb 0.00 in0.0 mm 0.00 in/hr0.0 mm/hr 0.00 in0.0 mm
12:00 AM 49.5°F9.7°C 41.9°F5.5°C 75% 0.8 mph S1.3 kmh S 3.1 mph5.0 kmh 30.16 in1021.3 mb 0.00 in0.0 mm 0.00 in/hr0.0 mm/hr 0.00 in0.0 mm